sensor_id;sensor_type;location;lat;lon;timestamp;P1;durP1;ratioP1;P2;durP2;ratioP2
1346;SDS011;667;48.796;9.480;2022-07-23T00:01:21;8.30;;;7.60;;
1346;SDS011;667;48.796;9.480;2022-07-23T00:03:48;8.40;;;7.60;;
1346;SDS011;667;48.796;9.480;2022-07-23T00:06:14;7.73;;;7.00;;
1346;SDS011;667;48.796;9.480;2022-07-23T00:08:40;8.27;;;7.63;;
1346;SDS011;667;48.796;9.480;2022-07-23T00:11:07;9.37;;;8.40;;
1346;SDS011;667;48.796;9.480;2022-07-23T00:13:32;8.03;;;7.33;;
1346;SDS011;667;48.796;9.480;2022-07-23T00:15:58;8.37;;;7.60;;
1346;SDS011;667;48.796;9.480;2022-07-23T00:18:24;7.97;;;7.37;;
1346;SDS011;667;48.796;9.480;2022-07-23T00:20:49;8.37;;;7.77;;
1346;SDS011;667;48.796;9.480;2022-07-23T00:23:16;7.90;;;7.20;;
1346;SDS011;667;48.796;9.480;2022-07-23T00:25:42;8.20;;;7.40;;
1346;SDS011;667;48.796;9.480;2022-07-23T00:28:07;8.50;;;7.90;;
1346;SDS011;667;48.796;9.480;2022-07-23T00:30:33;7.30;;;6.80;;
1346;SDS011;667;48.796;9.480;2022-07-23T00:32:59;7.90;;;7.30;;
1346;SDS011;667;48.796;9.480;2022-07-23T00:35:28;7.20;;;6.70;;
1346;SDS011;667;48.796;9.480;2022-07-23T00:37:56;7.30;;;6.70;;
1346;SDS011;667;48.796;9.480;2022-07-23T00:40:22;6.63;;;6.23;;
1346;SDS011;667;48.796;9.480;2022-07-23T00:42:49;7.00;;;6.50;;
1346;SDS011;667;48.796;9.480;2022-07-23T00:45:14;6.80;;;6.30;;
1346;SDS011;667;48.796;9.480;2022-07-23T00:47:40;6.97;;;6.47;;
1346;SDS011;667;48.796;9.480;2022-07-23T00:50:06;7.20;;;6.60;;
1346;SDS011;667;48.796;9.480;2022-07-23T00:52:33;7.00;;;6.40;;
1346;SDS011;667;48.796;9.480;2022-07-23T00:55:00;6.83;;;6.33;;
1346;SDS011;667;48.796;9.480;2022-07-23T00:57:26;7.20;;;6.70;;
1346;SDS011;667;48.796;9.480;2022-07-23T00:59:52;7.03;;;6.53;;
1346;SDS011;667;48.796;9.480;2022-07-23T01:02:18;7.13;;;6.63;;
1346;SDS011;667;48.796;9.480;2022-07-23T01:04:43;6.93;;;6.43;;
1346;SDS011;667;48.796;9.480;2022-07-23T01:07:09;7.57;;;6.97;;
1346;SDS011;667;48.796;9.480;2022-07-23T01:09:35;7.50;;;6.93;;
1346;SDS011;667;48.796;9.480;2022-07-23T01:12:02;7.33;;;6.83;;
1346;SDS011;667;48.796;9.480;2022-07-23T01:14:28;7.10;;;6.60;;
1346;SDS011;667;48.796;9.480;2022-07-23T01:16:54;6.30;;;5.80;;
1346;SDS011;667;48.796;9.480;2022-07-23T01:19:19;7.33;;;6.30;;
1346;SDS011;667;48.796;9.480;2022-07-23T01:21:47;6.30;;;5.77;;
1346;SDS011;667;48.796;9.480;2022-07-23T01:24:14;6.13;;;5.70;;
1346;SDS011;667;48.796;9.480;2022-07-23T01:26:44;5.33;;;4.90;;
1346;SDS011;667;48.796;9.480;2022-07-23T01:29:10;5.10;;;4.70;;
1346;SDS011;667;48.796;9.480;2022-07-23T01:31:36;5.73;;;5.23;;
1346;SDS011;667;48.796;9.480;2022-07-23T01:34:02;5.10;;;4.80;;
1346;SDS011;667;48.796;9.480;2022-07-23T01:36:29;4.73;;;4.40;;
1346;SDS011;667;48.796;9.480;2022-07-23T01:38:54;5.10;;;4.70;;
1346;SDS011;667;48.796;9.480;2022-07-23T01:41:20;5.40;;;5.00;;
1346;SDS011;667;48.796;9.480;2022-07-23T01:43:45;5.00;;;4.60;;
1346;SDS011;667;48.796;9.480;2022-07-23T01:46:11;5.03;;;4.63;;
1346;SDS011;667;48.796;9.480;2022-07-23T01:48:37;4.50;;;4.13;;
1346;SDS011;667;48.796;9.480;2022-07-23T01:51:03;4.63;;;4.23;;
1346;SDS011;667;48.796;9.480;2022-07-23T01:53:28;5.20;;;4.70;;
1346;SDS011;667;48.796;9.480;2022-07-23T01:55:56;5.60;;;5.10;;
1346;SDS011;667;48.796;9.480;2022-07-23T01:58:25;5.70;;;5.30;;
1346;SDS011;667;48.796;9.480;2022-07-23T02:00:52;5.70;;;5.30;;
1346;SDS011;667;48.796;9.480;2022-07-23T02:03:18;5.83;;;5.33;;
1346;SDS011;667;48.796;9.480;2022-07-23T02:05:44;5.70;;;5.23;;
1346;SDS011;667;48.796;9.480;2022-07-23T02:08:10;6.20;;;5.70;;
1346;SDS011;667;48.796;9.480;2022-07-23T02:10:35;6.83;;;5.93;;
1346;SDS011;667;48.796;9.480;2022-07-23T02:13:01;6.20;;;5.43;;
1346;SDS011;667;48.796;9.480;2022-07-23T02:15:26;6.37;;;5.77;;
1346;SDS011;667;48.796;9.480;2022-07-23T02:17:53;5.60;;;5.20;;
1346;SDS011;667;48.796;9.480;2022-07-23T02:20:19;5.57;;;5.07;;
1346;SDS011;667;48.796;9.480;2022-07-23T02:22:44;5.73;;;5.30;;
1346;SDS011;667;48.796;9.480;2022-07-23T02:25:10;6.03;;;5.53;;
1346;SDS011;667;48.796;9.480;2022-07-23T02:27:36;5.80;;;5.40;;
1346;SDS011;667;48.796;9.480;2022-07-23T02:30:03;5.80;;;5.00;;
1346;SDS011;667;48.796;9.480;2022-07-23T02:32:29;5.23;;;4.83;;
1346;SDS011;667;48.796;9.480;2022-07-23T02:34:54;6.37;;;5.80;;
1346;SDS011;667;48.796;9.480;2022-07-23T02:37:20;7.53;;;6.00;;
1346;SDS011;667;48.796;9.480;2022-07-23T02:39:46;6.00;;;5.40;;
1346;SDS011;667;48.796;9.480;2022-07-23T02:42:13;6.07;;;4.93;;
1346;SDS011;667;48.796;9.480;2022-07-23T02:44:39;6.37;;;5.87;;
1346;SDS011;667;48.796;9.480;2022-07-23T02:47:05;6.70;;;6.20;;
1346;SDS011;667;48.796;9.480;2022-07-23T02:49:30;5.63;;;5.23;;
1346;SDS011;667;48.796;9.480;2022-07-23T02:51:56;6.03;;;5.53;;
1346;SDS011;667;48.796;9.480;2022-07-23T02:54:22;6.00;;;5.60;;
1346;SDS011;667;48.796;9.480;2022-07-23T02:56:47;5.60;;;5.17;;
1346;SDS011;667;48.796;9.480;2022-07-23T02:59:13;5.53;;;5.13;;
1346;SDS011;667;48.796;9.480;2022-07-23T03:01:39;5.90;;;5.40;;
1346;SDS011;667;48.796;9.480;2022-07-23T03:04:04;5.80;;;5.30;;
1346;SDS011;667;48.796;9.480;2022-07-23T03:06:30;6.27;;;5.77;;
1346;SDS011;667;48.796;9.480;2022-07-23T03:08:55;6.30;;;5.77;;
1346;SDS011;667;48.796;9.480;2022-07-23T03:11:21;6.53;;;6.03;;
1346;SDS011;667;48.796;9.480;2022-07-23T03:13:46;7.73;;;5.60;;
1346;SDS011;667;48.796;9.480;2022-07-23T03:16:12;6.07;;;5.57;;
1346;SDS011;667;48.796;9.480;2022-07-23T03:18:38;6.53;;;5.60;;
1346;SDS011;667;48.796;9.480;2022-07-23T03:21:03;6.27;;;5.77;;
1346;SDS011;667;48.796;9.480;2022-07-23T03:23:29;6.03;;;5.53;;
1346;SDS011;667;48.796;9.480;2022-07-23T03:25:54;6.10;;;5.50;;
1346;SDS011;667;48.796;9.480;2022-07-23T03:28:20;6.50;;;5.90;;
1346;SDS011;667;48.796;9.480;2022-07-23T03:30:46;5.20;;;4.80;;
1346;SDS011;667;48.796;9.480;2022-07-23T03:33:13;6.30;;;5.70;;
1346;SDS011;667;48.796;9.480;2022-07-23T03:35:39;6.80;;;6.20;;
1346;SDS011;667;48.796;9.480;2022-07-23T03:38:05;7.33;;;5.57;;
1346;SDS011;667;48.796;9.480;2022-07-23T03:40:31;6.17;;;5.77;;
1346;SDS011;667;48.796;9.480;2022-07-23T03:42:56;5.93;;;5.43;;
1346;SDS011;667;48.796;9.480;2022-07-23T03:45:22;6.27;;;5.77;;
1346;SDS011;667;48.796;9.480;2022-07-23T03:47:48;6.33;;;5.90;;
1346;SDS011;667;48.796;9.480;2022-07-23T03:50:13;6.60;;;6.07;;
1346;SDS011;667;48.796;9.480;2022-07-23T03:52:39;6.37;;;5.87;;
1346;SDS011;667;48.796;9.480;2022-07-23T03:55:05;6.17;;;5.67;;
1346;SDS011;667;48.796;9.480;2022-07-23T03:57:32;6.10;;;5.60;;
1346;SDS011;667;48.796;9.480;2022-07-23T03:59:57;6.23;;;5.83;;
1346;SDS011;667;48.796;9.480;2022-07-23T04:02:23;6.00;;;5.60;;
1346;SDS011;667;48.796;9.480;2022-07-23T04:04:49;5.93;;;5.53;;
1346;SDS011;667;48.796;9.480;2022-07-23T04:07:14;6.33;;;5.73;;
1346;SDS011;667;48.796;9.480;2022-07-23T04:09:42;5.80;;;5.40;;
1346;SDS011;667;48.796;9.480;2022-07-23T04:12:08;7.50;;;6.37;;
1346;SDS011;667;48.796;9.480;2022-07-23T04:14:34;6.20;;;5.70;;
1346;SDS011;667;48.796;9.480;2022-07-23T04:17:00;6.00;;;5.50;;
1346;SDS011;667;48.796;9.480;2022-07-23T04:19:26;5.83;;;5.33;;
1346;SDS011;667;48.796;9.480;2022-07-23T04:21:51;6.77;;;6.27;;
1346;SDS011;667;48.796;9.480;2022-07-23T04:24:17;5.57;;;5.20;;
1346;SDS011;667;48.796;9.480;2022-07-23T04:26:43;6.20;;;5.70;;
1346;SDS011;667;48.796;9.480;2022-07-23T04:29:09;7.23;;;5.30;;
1346;SDS011;667;48.796;9.480;2022-07-23T04:31:35;6.10;;;5.60;;
1346;SDS011;667;48.796;9.480;2022-07-23T04:34:01;6.30;;;5.80;;
1346;SDS011;667;48.796;9.480;2022-07-23T04:36:27;7.20;;;6.60;;
1346;SDS011;667;48.796;9.480;2022-07-23T04:38:53;6.70;;;6.10;;
1346;SDS011;667;48.796;9.480;2022-07-23T04:41:18;7.43;;;6.70;;
1346;SDS011;667;48.796;9.480;2022-07-23T04:43:44;7.03;;;6.33;;
1346;SDS011;667;48.796;9.480;2022-07-23T04:46:10;6.13;;;5.63;;
1346;SDS011;667;48.796;9.480;2022-07-23T04:48:35;7.23;;;6.63;;
1346;SDS011;667;48.796;9.480;2022-07-23T04:51:01;6.60;;;6.00;;
1346;SDS011;667;48.796;9.480;2022-07-23T04:53:27;6.47;;;5.97;;
1346;SDS011;667;48.796;9.480;2022-07-23T04:55:53;6.77;;;6.27;;
1346;SDS011;667;48.796;9.480;2022-07-23T04:58:18;6.33;;;5.90;;
1346;SDS011;667;48.796;9.480;2022-07-23T05:00:44;6.87;;;5.90;;
1346;SDS011;667;48.796;9.480;2022-07-23T05:03:09;7.53;;;6.93;;
1346;SDS011;667;48.796;9.480;2022-07-23T05:05:35;6.57;;;5.97;;
1346;SDS011;667;48.796;9.480;2022-07-23T05:08:01;7.60;;;6.97;;
1346;SDS011;667;48.796;9.480;2022-07-23T05:10:27;7.17;;;6.50;;
1346;SDS011;667;48.796;9.480;2022-07-23T05:12:52;7.57;;;7.07;;
1346;SDS011;667;48.796;9.480;2022-07-23T05:15:18;7.93;;;7.13;;
1346;SDS011;667;48.796;9.480;2022-07-23T05:17:43;6.93;;;6.27;;
1346;SDS011;667;48.796;9.480;2022-07-23T05:20:09;8.00;;;7.27;;
1346;SDS011;667;48.796;9.480;2022-07-23T05:22:35;8.23;;;7.53;;
1346;SDS011;667;48.796;9.480;2022-07-23T05:25:01;7.83;;;7.03;;
1346;SDS011;667;48.796;9.480;2022-07-23T05:27:26;7.17;;;6.63;;
1346;SDS011;667;48.796;9.480;2022-07-23T05:29:52;7.43;;;6.93;;
1346;SDS011;667;48.796;9.480;2022-07-23T05:32:17;8.67;;;7.87;;
1346;SDS011;667;48.796;9.480;2022-07-23T05:34:43;7.40;;;6.80;;
1346;SDS011;667;48.796;9.480;2022-07-23T05:37:09;7.77;;;7.17;;
1346;SDS011;667;48.796;9.480;2022-07-23T05:39:34;9.00;;;6.90;;
1346;SDS011;667;48.796;9.480;2022-07-23T05:42:00;7.73;;;7.13;;
1346;SDS011;667;48.796;9.480;2022-07-23T05:44:25;7.83;;;7.13;;
1346;SDS011;667;48.796;9.480;2022-07-23T05:46:52;7.20;;;6.60;;
1346;SDS011;667;48.796;9.480;2022-07-23T05:49:17;7.73;;;7.10;;
1346;SDS011;667;48.796;9.480;2022-07-23T05:51:43;7.00;;;6.50;;
1346;SDS011;667;48.796;9.480;2022-07-23T05:54:09;8.53;;;7.93;;
1346;SDS011;667;48.796;9.480;2022-07-23T05:56:34;7.50;;;7.00;;
1346;SDS011;667;48.796;9.480;2022-07-23T05:59:00;8.93;;;8.23;;
1346;SDS011;667;48.796;9.480;2022-07-23T06:01:26;7.97;;;7.40;;
1346;SDS011;667;48.796;9.480;2022-07-23T06:03:51;8.80;;;8.10;;
1346;SDS011;667;48.796;9.480;2022-07-23T06:06:17;8.10;;;7.60;;
1346;SDS011;667;48.796;9.480;2022-07-23T06:08:43;7.33;;;6.73;;
1346;SDS011;667;48.796;9.480;2022-07-23T06:11:08;8.30;;;7.70;;
1346;SDS011;667;48.796;9.480;2022-07-23T06:13:34;8.07;;;7.47;;
1346;SDS011;667;48.796;9.480;2022-07-23T06:16:00;8.07;;;7.47;;
1346;SDS011;667;48.796;9.480;2022-07-23T06:18:26;8.17;;;7.57;;
1346;SDS011;667;48.796;9.480;2022-07-23T06:20:51;7.90;;;7.10;;
1346;SDS011;667;48.796;9.480;2022-07-23T06:23:17;8.00;;;7.30;;
1346;SDS011;667;48.796;9.480;2022-07-23T06:25:42;8.70;;;8.00;;
1346;SDS011;667;48.796;9.480;2022-07-23T06:28:08;7.83;;;7.17;;
1346;SDS011;667;48.796;9.480;2022-07-23T06:30:34;9.47;;;8.73;;
1346;SDS011;667;48.796;9.480;2022-07-23T06:32:59;9.37;;;8.57;;
1346;SDS011;667;48.796;9.480;2022-07-23T06:35:25;9.30;;;8.50;;
1346;SDS011;667;48.796;9.480;2022-07-23T06:37:50;8.80;;;8.10;;
1346;SDS011;667;48.796;9.480;2022-07-23T06:40:16;9.40;;;8.60;;
1346;SDS011;667;48.796;9.480;2022-07-23T06:42:42;9.00;;;8.37;;
1346;SDS011;667;48.796;9.480;2022-07-23T06:45:08;9.70;;;8.90;;
1346;SDS011;667;48.796;9.480;2022-07-23T06:47:33;8.60;;;7.90;;
1346;SDS011;667;48.796;9.480;2022-07-23T06:49:59;9.23;;;8.43;;
1346;SDS011;667;48.796;9.480;2022-07-23T06:52:25;8.90;;;8.30;;
1346;SDS011;667;48.796;9.480;2022-07-23T06:54:52;8.53;;;7.83;;
1346;SDS011;667;48.796;9.480;2022-07-23T06:57:18;8.53;;;7.83;;
1346;SDS011;667;48.796;9.480;2022-07-23T06:59:43;9.17;;;8.37;;
1346;SDS011;667;48.796;9.480;2022-07-23T07:02:09;8.53;;;7.83;;
1346;SDS011;667;48.796;9.480;2022-07-23T07:04:34;8.70;;;8.10;;
1346;SDS011;667;48.796;9.480;2022-07-23T07:07:00;8.20;;;7.60;;
1346;SDS011;667;48.796;9.480;2022-07-23T07:09:26;8.17;;;7.60;;
1346;SDS011;667;48.796;9.480;2022-07-23T07:11:51;9.13;;;8.27;;
1346;SDS011;667;48.796;9.480;2022-07-23T07:14:17;9.10;;;8.50;;
1346;SDS011;667;48.796;9.480;2022-07-23T07:16:43;8.37;;;7.77;;
1346;SDS011;667;48.796;9.480;2022-07-23T07:19:08;8.73;;;8.03;;
1346;SDS011;667;48.796;9.480;2022-07-23T07:21:34;9.07;;;8.37;;
1346;SDS011;667;48.796;9.480;2022-07-23T07:24:00;9.40;;;8.40;;
1346;SDS011;667;48.796;9.480;2022-07-23T07:26:25;9.20;;;8.40;;
1346;SDS011;667;48.796;9.480;2022-07-23T07:28:51;8.80;;;8.10;;
1346;SDS011;667;48.796;9.480;2022-07-23T07:31:17;8.87;;;8.17;;
1346;SDS011;667;48.796;9.480;2022-07-23T07:33:42;9.80;;;9.00;;
1346;SDS011;667;48.796;9.480;2022-07-23T07:36:08;9.50;;;8.80;;
1346;SDS011;667;48.796;9.480;2022-07-23T07:38:34;8.50;;;7.73;;
1346;SDS011;667;48.796;9.480;2022-07-23T07:40:59;8.87;;;8.17;;
1346;SDS011;667;48.796;9.480;2022-07-23T07:43:25;9.37;;;8.53;;
1346;SDS011;667;48.796;9.480;2022-07-23T07:45:50;8.97;;;8.17;;
1346;SDS011;667;48.796;9.480;2022-07-23T07:48:16;8.50;;;7.80;;
1346;SDS011;667;48.796;9.480;2022-07-23T07:50:42;9.17;;;8.27;;
1346;SDS011;667;48.796;9.480;2022-07-23T07:53:07;10.47;;;9.40;;
1346;SDS011;667;48.796;9.480;2022-07-23T07:55:34;10.90;;;9.90;;
1346;SDS011;667;48.796;9.480;2022-07-23T07:57:59;9.40;;;8.63;;
1346;SDS011;667;48.796;9.480;2022-07-23T08:00:25;9.53;;;8.83;;
1346;SDS011;667;48.796;9.480;2022-07-23T08:02:53;10.23;;;9.43;;
1346;SDS011;667;48.796;9.480;2022-07-23T08:05:23;10.97;;;9.90;;
1346;SDS011;667;48.796;9.480;2022-07-23T08:07:50;10.40;;;9.53;;
1346;SDS011;667;48.796;9.480;2022-07-23T08:10:15;10.30;;;9.40;;
1346;SDS011;667;48.796;9.480;2022-07-23T08:15:09;10.47;;;9.57;;
1346;SDS011;667;48.796;9.480;2022-07-23T08:17:35;10.47;;;9.57;;
1346;SDS011;667;48.796;9.480;2022-07-23T08:20:01;10.50;;;9.70;;
1346;SDS011;667;48.796;9.480;2022-07-23T08:22:41;11.17;;;10.27;;
1346;SDS011;667;48.796;9.480;2022-07-23T08:25:06;10.27;;;9.37;;
1346;SDS011;667;48.796;9.480;2022-07-23T08:27:32;10.40;;;9.60;;
1346;SDS011;667;48.796;9.480;2022-07-23T08:29:58;9.43;;;8.73;;
1346;SDS011;667;48.796;9.480;2022-07-23T08:32:23;10.27;;;9.37;;
1346;SDS011;667;48.796;9.480;2022-07-23T08:34:49;10.47;;;9.57;;
1346;SDS011;667;48.796;9.480;2022-07-23T08:37:14;9.50;;;8.80;;
1346;SDS011;667;48.796;9.480;2022-07-23T08:39:40;10.97;;;9.97;;
1346;SDS011;667;48.796;9.480;2022-07-23T08:42:06;9.50;;;8.70;;
1346;SDS011;667;48.796;9.480;2022-07-23T08:44:32;9.90;;;9.10;;
1346;SDS011;667;48.796;9.480;2022-07-23T08:47:00;9.60;;;8.77;;
1346;SDS011;667;48.796;9.480;2022-07-23T08:49:26;9.83;;;8.93;;
1346;SDS011;667;48.796;9.480;2022-07-23T08:51:53;9.30;;;8.50;;
1346;SDS011;667;48.796;9.480;2022-07-23T08:54:20;10.07;;;9.17;;
1346;SDS011;667;48.796;9.480;2022-07-23T08:56:47;8.83;;;8.13;;
1346;SDS011;667;48.796;9.480;2022-07-23T08:59:13;8.90;;;8.20;;
1346;SDS011;667;48.796;9.480;2022-07-23T09:01:39;8.67;;;8.07;;
1346;SDS011;667;48.796;9.480;2022-07-23T09:04:05;9.90;;;9.03;;
1346;SDS011;667;48.796;9.480;2022-07-23T09:06:31;10.17;;;9.37;;
1346;SDS011;667;48.796;9.480;2022-07-23T09:08:56;10.60;;;9.60;;
1346;SDS011;667;48.796;9.480;2022-07-23T09:11:22;10.17;;;9.27;;
1346;SDS011;667;48.796;9.480;2022-07-23T09:13:52;10.10;;;9.30;;
1346;SDS011;667;48.796;9.480;2022-07-23T09:16:30;9.43;;;8.73;;
1346;SDS011;667;48.796;9.480;2022-07-23T09:18:57;10.87;;;9.87;;
1346;SDS011;667;48.796;9.480;2022-07-23T09:21:36;10.43;;;9.37;;
1346;SDS011;667;48.796;9.480;2022-07-23T09:29:07;9.37;;;8.50;;
1346;SDS011;667;48.796;9.480;2022-07-23T09:34:24;9.67;;;8.87;;
1346;SDS011;667;48.796;9.480;2022-07-23T09:37:13;9.97;;;8.93;;
1346;SDS011;667;48.796;9.480;2022-07-23T09:39:40;9.20;;;8.50;;
1346;SDS011;667;48.796;9.480;2022-07-23T09:42:25;10.30;;;9.40;;
1346;SDS011;667;48.796;9.480;2022-07-23T09:44:51;9.97;;;9.17;;
1346;SDS011;667;48.796;9.480;2022-07-23T09:47:21;9.30;;;8.60;;
1346;SDS011;667;48.796;9.480;2022-07-23T09:52:30;9.60;;;8.80;;
1346;SDS011;667;48.796;9.480;2022-07-23T09:55:15;9.80;;;9.00;;
1346;SDS011;667;48.796;9.480;2022-07-23T09:57:42;9.47;;;8.77;;
1346;SDS011;667;48.796;9.480;2022-07-23T10:00:12;9.80;;;9.00;;
1346;SDS011;667;48.796;9.480;2022-07-23T10:02:38;8.90;;;8.30;;
1346;SDS011;667;48.796;9.480;2022-07-23T10:05:05;9.40;;;8.67;;
1346;SDS011;667;48.796;9.480;2022-07-23T10:07:37;8.73;;;8.03;;
1346;SDS011;667;48.796;9.480;2022-07-23T10:10:05;9.20;;;8.60;;
1346;SDS011;667;48.796;9.480;2022-07-23T10:12:31;9.60;;;8.70;;
1346;SDS011;667;48.796;9.480;2022-07-23T10:15:15;8.73;;;8.13;;
1346;SDS011;667;48.796;9.480;2022-07-23T10:17:41;8.83;;;8.23;;
1346;SDS011;667;48.796;9.480;2022-07-23T10:20:07;8.03;;;7.33;;
1346;SDS011;667;48.796;9.480;2022-07-23T10:22:34;9.00;;;8.20;;
1346;SDS011;667;48.796;9.480;2022-07-23T10:30:59;9.20;;;8.30;;
1346;SDS011;667;48.796;9.480;2022-07-23T10:36:15;8.03;;;7.43;;
1346;SDS011;667;48.796;9.480;2022-07-23T10:41:44;8.33;;;7.73;;
1346;SDS011;667;48.796;9.480;2022-07-23T10:44:16;7.90;;;7.40;;
1346;SDS011;667;48.796;9.480;2022-07-23T10:46:55;8.67;;;7.97;;
1346;SDS011;667;48.796;9.480;2022-07-23T10:49:44;7.70;;;7.20;;
1346;SDS011;667;48.796;9.480;2022-07-23T10:54:47;7.70;;;7.20;;
1346;SDS011;667;48.796;9.480;2022-07-23T10:57:49;7.97;;;7.47;;
1346;SDS011;667;48.796;9.480;2022-07-23T11:00:22;7.57;;;6.97;;
1346;SDS011;667;48.796;9.480;2022-07-23T11:02:51;8.10;;;7.60;;
1346;SDS011;667;48.796;9.480;2022-07-23T11:05:25;8.20;;;7.70;;
1346;SDS011;667;48.796;9.480;2022-07-23T11:11:17;7.60;;;7.10;;
1346;SDS011;667;48.796;9.480;2022-07-23T11:13:36;7.30;;;6.70;;
1346;SDS011;667;48.796;9.480;2022-07-23T11:23:57;7.50;;;7.00;;
1346;SDS011;667;48.796;9.480;2022-07-23T11:31:57;7.20;;;6.70;;
1346;SDS011;667;48.796;9.480;2022-07-23T11:34:39;8.27;;;7.57;;
1346;SDS011;667;48.796;9.480;2022-07-23T11:37:09;8.03;;;7.43;;
1346;SDS011;667;48.796;9.480;2022-07-23T11:39:37;7.93;;;7.33;;
1346;SDS011;667;48.796;9.480;2022-07-23T11:42:04;8.00;;;7.50;;
1346;SDS011;667;48.796;9.480;2022-07-23T11:44:32;7.80;;;7.20;;
1346;SDS011;667;48.796;9.480;2022-07-23T11:49:24;7.53;;;7.03;;
1346;SDS011;667;48.796;9.480;2022-07-23T11:52:04;7.80;;;7.27;;
1346;SDS011;667;48.796;9.480;2022-07-23T11:54:30;7.83;;;7.13;;
1346;SDS011;667;48.796;9.480;2022-07-23T11:56:59;8.40;;;7.70;;
1346;SDS011;667;48.796;9.480;2022-07-23T11:59:26;7.80;;;7.20;;
1346;SDS011;667;48.796;9.480;2022-07-23T12:02:00;7.07;;;6.57;;
1346;SDS011;667;48.796;9.480;2022-07-23T12:04:46;8.17;;;7.57;;
1346;SDS011;667;48.796;9.480;2022-07-23T12:07:32;7.80;;;7.30;;
1346;SDS011;667;48.796;9.480;2022-07-23T12:10:00;7.97;;;7.47;;
1346;SDS011;667;48.796;9.480;2022-07-23T12:12:39;8.37;;;7.77;;
1346;SDS011;667;48.796;9.480;2022-07-23T12:15:07;8.43;;;7.83;;
1346;SDS011;667;48.796;9.480;2022-07-23T12:17:34;9.33;;;8.53;;
1346;SDS011;667;48.796;9.480;2022-07-23T12:20:03;9.23;;;8.50;;
1346;SDS011;667;48.796;9.480;2022-07-23T12:22:36;8.40;;;7.80;;
1346;SDS011;667;48.796;9.480;2022-07-23T12:25:08;9.20;;;8.50;;
1346;SDS011;667;48.796;9.480;2022-07-23T12:27:40;8.77;;;8.17;;
1346;SDS011;667;48.796;9.480;2022-07-23T12:30:26;8.53;;;7.93;;
1346;SDS011;667;48.796;9.480;2022-07-23T12:32:54;8.33;;;7.73;;
1346;SDS011;667;48.796;9.480;2022-07-23T12:35:22;8.90;;;8.20;;
1346;SDS011;667;48.796;9.480;2022-07-23T12:37:49;8.17;;;7.57;;
1346;SDS011;667;48.796;9.480;2022-07-23T12:40:30;7.80;;;7.20;;
1346;SDS011;667;48.796;9.480;2022-07-23T12:45:27;9.63;;;8.83;;
1346;SDS011;667;48.796;9.480;2022-07-23T12:48:06;9.13;;;8.43;;
1346;SDS011;667;48.796;9.480;2022-07-23T12:53:04;8.30;;;7.70;;
1346;SDS011;667;48.796;9.480;2022-07-23T12:55:30;8.33;;;7.83;;
1346;SDS011;667;48.796;9.480;2022-07-23T12:58:06;8.57;;;7.97;;
1346;SDS011;667;48.796;9.480;2022-07-23T13:00:50;8.60;;;7.90;;
1346;SDS011;667;48.796;9.480;2022-07-23T13:05:58;8.20;;;7.60;;
1346;SDS011;667;48.796;9.480;2022-07-23T13:08:25;7.40;;;6.90;;
1346;SDS011;667;48.796;9.480;2022-07-23T13:10:52;8.63;;;7.83;;
1346;SDS011;667;48.796;9.480;2022-07-23T13:13:25;8.13;;;7.53;;
1346;SDS011;667;48.796;9.480;2022-07-23T13:15:55;9.10;;;8.40;;
1346;SDS011;667;48.796;9.480;2022-07-23T13:18:21;8.10;;;7.40;;
1346;SDS011;667;48.796;9.480;2022-07-23T13:20:47;8.40;;;7.80;;
1346;SDS011;667;48.796;9.480;2022-07-23T13:23:14;8.40;;;7.80;;
1346;SDS011;667;48.796;9.480;2022-07-23T13:25:40;9.43;;;8.73;;
1346;SDS011;667;48.796;9.480;2022-07-23T13:28:06;8.83;;;8.23;;
1346;SDS011;667;48.796;9.480;2022-07-23T13:30:32;9.20;;;8.50;;
1346;SDS011;667;48.796;9.480;2022-07-23T13:32:58;9.73;;;8.97;;
1346;SDS011;667;48.796;9.480;2022-07-23T13:35:24;9.07;;;8.37;;
1346;SDS011;667;48.796;9.480;2022-07-23T13:37:50;9.30;;;8.70;;
1346;SDS011;667;48.796;9.480;2022-07-23T13:40:16;9.17;;;8.50;;
1346;SDS011;667;48.796;9.480;2022-07-23T13:42:41;9.30;;;8.60;;
1346;SDS011;667;48.796;9.480;2022-07-23T13:45:07;8.67;;;8.17;;
1346;SDS011;667;48.796;9.480;2022-07-23T13:47:33;8.97;;;8.27;;
1346;SDS011;667;48.796;9.480;2022-07-23T13:49:58;9.23;;;8.53;;
1346;SDS011;667;48.796;9.480;2022-07-23T13:52:24;8.80;;;8.20;;
1346;SDS011;667;48.796;9.480;2022-07-23T13:54:50;9.20;;;8.43;;
1346;SDS011;667;48.796;9.480;2022-07-23T13:57:16;9.30;;;8.60;;
1346;SDS011;667;48.796;9.480;2022-07-23T13:59:41;8.30;;;7.70;;
1346;SDS011;667;48.796;9.480;2022-07-23T14:02:07;9.27;;;8.57;;
1346;SDS011;667;48.796;9.480;2022-07-23T14:04:33;9.93;;;9.23;;
1346;SDS011;667;48.796;9.480;2022-07-23T14:06:59;10.40;;;9.60;;
1346;SDS011;667;48.796;9.480;2022-07-23T14:09:25;9.70;;;9.00;;
1346;SDS011;667;48.796;9.480;2022-07-23T14:11:51;9.70;;;9.00;;
1346;SDS011;667;48.796;9.480;2022-07-23T14:14:17;9.60;;;8.87;;
1346;SDS011;667;48.796;9.480;2022-07-23T14:16:43;8.90;;;8.27;;
1346;SDS011;667;48.796;9.480;2022-07-23T14:19:09;9.90;;;9.20;;
1346;SDS011;667;48.796;9.480;2022-07-23T14:24:05;9.50;;;8.80;;
1346;SDS011;667;48.796;9.480;2022-07-23T14:26:30;9.73;;;8.93;;
1346;SDS011;667;48.796;9.480;2022-07-23T14:28:56;10.10;;;9.30;;
1346;SDS011;667;48.796;9.480;2022-07-23T14:31:22;10.13;;;9.43;;
1346;SDS011;667;48.796;9.480;2022-07-23T14:33:47;9.80;;;9.10;;
1346;SDS011;667;48.796;9.480;2022-07-23T14:36:13;11.10;;;10.30;;
1346;SDS011;667;48.796;9.480;2022-07-23T14:38:40;11.17;;;10.37;;
1346;SDS011;667;48.796;9.480;2022-07-23T14:41:05;10.70;;;9.97;;
1346;SDS011;667;48.796;9.480;2022-07-23T14:43:33;11.03;;;10.17;;
1346;SDS011;667;48.796;9.480;2022-07-23T14:45:59;10.60;;;9.90;;
1346;SDS011;667;48.796;9.480;2022-07-23T14:48:24;11.47;;;10.57;;
1346;SDS011;667;48.796;9.480;2022-07-23T14:50:50;11.40;;;10.40;;
1346;SDS011;667;48.796;9.480;2022-07-23T14:53:15;10.63;;;9.93;;
1346;SDS011;667;48.796;9.480;2022-07-23T14:55:41;10.67;;;9.93;;
1346;SDS011;667;48.796;9.480;2022-07-23T14:58:07;11.30;;;10.40;;
1346;SDS011;667;48.796;9.480;2022-07-23T15:00:32;10.70;;;10.00;;
1346;SDS011;667;48.796;9.480;2022-07-23T15:02:58;11.33;;;10.47;;
1346;SDS011;667;48.796;9.480;2022-07-23T15:05:23;12.13;;;11.17;;
1346;SDS011;667;48.796;9.480;2022-07-23T15:07:49;11.07;;;10.27;;
1346;SDS011;667;48.796;9.480;2022-07-23T15:10:15;10.70;;;10.00;;
1346;SDS011;667;48.796;9.480;2022-07-23T15:12:41;12.20;;;11.30;;
1346;SDS011;667;48.796;9.480;2022-07-23T15:15:07;10.83;;;10.03;;
1346;SDS011;667;48.796;9.480;2022-07-23T15:17:33;10.40;;;9.60;;
1346;SDS011;667;48.796;9.480;2022-07-23T15:19:58;12.57;;;11.30;;
1346;SDS011;667;48.796;9.480;2022-07-23T15:22:24;15.53;;;13.50;;
1346;SDS011;667;48.796;9.480;2022-07-23T15:24:50;11.93;;;10.70;;
1346;SDS011;667;48.796;9.480;2022-07-23T15:27:15;11.17;;;10.33;;
1346;SDS011;667;48.796;9.480;2022-07-23T15:29:42;11.03;;;10.13;;
1346;SDS011;667;48.796;9.480;2022-07-23T15:32:09;12.67;;;11.67;;
1346;SDS011;667;48.796;9.480;2022-07-23T15:34:35;12.00;;;11.00;;
1346;SDS011;667;48.796;9.480;2022-07-23T15:37:01;10.37;;;9.67;;
1346;SDS011;667;48.796;9.480;2022-07-23T15:39:27;10.80;;;10.00;;
1346;SDS011;667;48.796;9.480;2022-07-23T15:41:52;10.73;;;9.80;;
1346;SDS011;667;48.796;9.480;2022-07-23T15:44:18;12.67;;;10.43;;
1346;SDS011;667;48.796;9.480;2022-07-23T15:46:44;11.27;;;10.37;;
1346;SDS011;667;48.796;9.480;2022-07-23T15:49:09;10.20;;;9.47;;
1346;SDS011;667;48.796;9.480;2022-07-23T15:51:35;10.67;;;9.97;;
1346;SDS011;667;48.796;9.480;2022-07-23T15:54:00;11.20;;;10.40;;
1346;SDS011;667;48.796;9.480;2022-07-23T15:56:26;11.30;;;10.40;;
1346;SDS011;667;48.796;9.480;2022-07-23T15:58:52;10.20;;;9.50;;
1346;SDS011;667;48.796;9.480;2022-07-23T16:01:17;11.03;;;10.23;;
1346;SDS011;667;48.796;9.480;2022-07-23T16:03:43;11.63;;;10.63;;
1346;SDS011;667;48.796;9.480;2022-07-23T16:06:09;10.70;;;10.00;;
1346;SDS011;667;48.796;9.480;2022-07-23T16:08:34;10.97;;;9.90;;
1346;SDS011;667;48.796;9.480;2022-07-23T16:11:00;11.80;;;10.90;;
1346;SDS011;667;48.796;9.480;2022-07-23T16:13:26;12.77;;;11.80;;
1346;SDS011;667;48.796;9.480;2022-07-23T16:15:52;11.00;;;10.07;;
1346;SDS011;667;48.796;9.480;2022-07-23T16:18:21;11.57;;;10.77;;
1346;SDS011;667;48.796;9.480;2022-07-23T16:20:47;11.27;;;10.47;;